MCI weather

Kansas City International Airport
Kansas City, Missouri, United States

Public forecast

Using degrees Fahrenheit for public forecast. Weather courtesy of forecast.io.

METAR (pilot weather report)

Retrieved 2019/04/26 04:53 UTC (23 minutes ago):

KMCI 260453Z 26007KT 10SM CLR 10/04 A3001 RMK AO2 SLP156 T01000044

TAF (pilot weather forecast)

Forecast is more than 12 hours old.

Retrieved 2019/04/25 00:22 UTC (1 day ago):

TAF KMCI 252320Z 2600/2624 35017G25KT P6SM SCT060 FM260100 32008KT P6SM SKC